createdAt,value
2017-12-16T00:00:33.957Z,24.98
2017-12-16T00:03:00.587Z,24.20
2017-12-16T00:05:27.862Z,24.25
2017-12-16T00:07:59.433Z,26.17
2017-12-16T00:10:27.421Z,27.50
2017-12-16T00:12:55.417Z,27.62
2017-12-16T00:15:21.949Z,28.33
2017-12-16T00:17:52.825Z,26.80
2017-12-16T00:20:20.098Z,27.90
2017-12-16T00:22:46.617Z,27.70
2017-12-16T00:25:13.157Z,26.77
2017-12-16T00:27:39.683Z,26.35
2017-12-16T00:30:06.336Z,27.73
2017-12-16T00:32:33.608Z,27.05
2017-12-16T00:35:00.821Z,26.30
2017-12-16T00:37:27.403Z,27.05
2017-12-16T00:39:53.909Z,26.80
2017-12-16T00:42:20.557Z,24.20
2017-12-16T00:44:47.831Z,24.90
2017-12-16T00:47:17.253Z,25.73
2017-12-16T00:49:44.510Z,25.60
2017-12-16T00:52:11.803Z,23.98
2017-12-16T00:54:38.270Z,23.95
2017-12-16T00:57:05.535Z,21.20
2017-12-16T00:59:32.786Z,21.52
2017-12-16T01:01:59.369Z,21.02
2017-12-16T01:04:29.907Z,19.48
2017-12-16T01:06:57.903Z,17.98
2017-12-16T01:09:25.128Z,18.30
2017-12-16T01:11:52.350Z,17.80
2017-12-16T01:14:19.730Z,19.00
2017-12-16T01:16:46.210Z,19.45
2017-12-16T01:19:12.844Z,19.15
2017-12-16T01:21:40.129Z,19.17
2017-12-16T01:24:07.341Z,20.15
2017-12-16T01:26:33.951Z,20.40
2017-12-16T01:29:01.341Z,20.27
2017-12-16T01:31:28.502Z,20.80
2017-12-16T01:34:08.051Z,20.45
2017-12-16T01:36:46.776Z,21.12
2017-12-16T01:39:14.052Z,21.15
2017-12-16T01:41:41.460Z,20.95
2017-12-16T01:44:07.978Z,20.95
2017-12-16T01:46:35.262Z,20.73
2017-12-16T01:49:02.534Z,20.98
2017-12-16T01:51:30.424Z,21.50
2017-12-16T01:53:57.802Z,21.00
2017-12-16T01:56:25.044Z,21.40
2017-12-16T01:58:55.316Z,21.05
2017-12-16T02:01:21.976Z,21.80
2017-12-16T02:03:49.776Z,22.42
2017-12-16T02:06:16.422Z,23.15
2017-12-16T02:08:47.479Z,23.42
2017-12-16T02:11:15.476Z,23.35
2017-12-16T02:13:42.029Z,24.30
2017-12-16T02:16:09.341Z,24.45
2017-12-16T02:18:39.645Z,24.20
2017-12-16T02:21:07.022Z,25.70
2017-12-16T02:23:34.308Z,25.95
2017-12-16T02:26:00.961Z,25.33
2017-12-16T02:28:27.527Z,25.58
2017-12-16T02:31:02.503Z,25.08
2017-12-16T02:33:29.081Z,23.73
2017-12-16T02:35:55.684Z,24.85
2017-12-16T02:38:22.342Z,22.87
2017-12-16T02:40:50.740Z,23.35
2017-12-16T02:43:18.118Z,23.65
2017-12-16T02:45:45.495Z,23.27
2017-12-16T02:48:12.052Z,22.92
2017-12-16T02:50:43.379Z,24.60
2017-12-16T02:53:09.976Z,23.40
2017-12-16T02:55:36.535Z,21.67
2017-12-16T02:58:03.913Z,21.05
2017-12-16T03:00:30.575Z,20.67
2017-12-16T03:02:57.233Z,22.02
2017-12-16T03:05:23.838Z,20.00
2017-12-16T03:07:50.454Z,19.90
2017-12-16T03:10:17.931Z,18.25
2017-12-16T03:12:45.412Z,16.50
2017-12-16T03:15:12.074Z,18.58
2017-12-16T03:17:38.735Z,18.45
2017-12-16T03:20:05.394Z,19.17
2017-12-16T03:22:34.099Z,18.50
2017-12-16T03:25:00.760Z,20.80
2017-12-16T03:27:28.140Z,20.08
2017-12-16T03:29:54.782Z,20.23
2017-12-16T03:32:22.070Z,20.55
2017-12-16T03:34:49.353Z,20.55
2017-12-16T03:37:19.541Z,22.98
2017-12-16T03:39:46.107Z,23.85
2017-12-16T03:42:12.934Z,23.57
2017-12-16T03:44:39.571Z,23.55
2017-12-16T03:47:09.804Z,24.98
2017-12-16T03:49:37.154Z,23.15
2017-12-16T03:52:03.734Z,23.10
2017-12-16T03:54:31.151Z,23.80
2017-12-16T03:56:58.805Z,23.45
2017-12-16T03:59:26.163Z,22.00
2017-12-16T04:01:53.660Z,21.15
2017-12-16T04:04:20.323Z,21.37
2017-12-16T04:06:51.482Z,21.05
2017-12-16T04:09:18.858Z,22.00
2017-12-16T04:11:46.234Z,22.13
2017-12-16T04:14:14.316Z,23.10
2017-12-16T04:16:41.704Z,22.20
2017-12-16T04:19:08.969Z,22.67
2017-12-16T04:21:36.357Z,21.70
2017-12-16T04:24:11.403Z,20.52
2017-12-16T04:26:38.063Z,19.13
2017-12-16T04:29:05.439Z,19.10
2017-12-16T04:31:36.538Z,19.67
2017-12-16T04:34:03.058Z,18.87
2017-12-16T04:36:29.614Z,17.77
2017-12-16T04:38:56.199Z,15.30
2017-12-16T04:41:26.245Z,15.43
2017-12-16T04:43:53.587Z,15.65
2017-12-16T04:46:20.247Z,16.10
2017-12-16T04:48:47.625Z,17.40
2017-12-16T04:51:15.002Z,17.60
2017-12-16T04:53:42.382Z,17.40
2017-12-16T04:56:08.986Z,18.20
2017-12-16T04:58:35.552Z,18.67
2017-12-16T05:01:03.409Z,20.00
2017-12-16T05:03:30.015Z,23.70
2017-12-16T05:05:57.211Z,25.27
2017-12-16T05:08:26.741Z,26.10
2017-12-16T05:10:54.122Z,26.10
2017-12-16T05:13:20.698Z,26.77
2017-12-16T05:15:47.438Z,26.80
2017-12-16T05:18:17.672Z,26.53
2017-12-16T05:20:45.056Z,25.10
2017-12-16T05:23:11.718Z,26.47
2017-12-16T05:25:38.275Z,26.80
2017-12-16T05:28:09.027Z,25.90
2017-12-16T05:30:36.315Z,25.88
2017-12-16T05:33:02.964Z,27.00
2017-12-16T05:35:30.338Z,26.35
2017-12-16T05:37:57.982Z,27.05
2017-12-16T05:40:24.581Z,27.00
2017-12-16T05:42:51.111Z,28.52
2017-12-16T05:45:17.675Z,27.33
2017-12-16T05:50:12.451Z,26.43
2017-12-16T05:52:39.827Z,27.27
2017-12-16T05:55:07.127Z,26.73
2017-12-16T05:57:33.764Z,27.27
2017-12-16T06:00:01.200Z,25.15
2017-12-16T06:02:28.407Z,28.67
2017-12-16T06:04:55.795Z,25.70
2017-12-16T06:07:22.452Z,26.20
2017-12-16T06:09:53.406Z,26.65
2017-12-16T06:12:20.069Z,25.33
2017-12-16T06:14:47.447Z,24.70
2017-12-16T06:17:14.208Z,25.90
2017-12-16T06:19:41.482Z,26.20
2017-12-16T06:22:08.040Z,24.42
2017-12-16T06:24:34.804Z,25.40
2017-12-16T06:27:01.466Z,25.20
2017-12-16T06:29:28.943Z,24.67
2017-12-16T06:31:55.717Z,24.90
2017-12-16T06:34:24.413Z,23.90
2017-12-16T06:36:51.994Z,24.73
2017-12-16T06:39:19.372Z,24.55
2017-12-16T06:41:45.934Z,24.50
2017-12-16T06:44:15.856Z,23.83
2017-12-16T06:46:43.280Z,24.67
2017-12-16T06:49:09.901Z,25.30
2017-12-16T06:51:38.155Z,26.25
2017-12-16T06:54:04.760Z,24.98
2017-12-16T06:56:31.343Z,26.00
2017-12-16T06:58:58.077Z,26.05
2017-12-16T07:01:24.742Z,25.42
2017-12-16T07:03:51.357Z,26.33
2017-12-16T07:06:20.094Z,25.70
2017-12-16T07:08:48.298Z,27.25
2017-12-16T07:11:15.676Z,25.80
2017-12-16T07:13:42.945Z,26.40
2017-12-16T07:19:15.035Z,24.77
2017-12-16T07:21:41.700Z,25.40
2017-12-16T07:24:08.356Z,24.27
2017-12-16T07:26:57.665Z,25.95
2017-12-16T07:29:24.385Z,24.70
2017-12-16T07:31:51.760Z,24.25
2017-12-16T07:34:20.614Z,25.27
2017-12-16T07:36:47.229Z,24.80
2017-12-16T07:39:14.487Z,25.27
2017-12-16T07:41:41.879Z,24.90
2017-12-16T07:44:09.258Z,29.80
2017-12-16T07:46:36.020Z,29.48
2017-12-16T07:49:02.684Z,28.67
2017-12-16T07:51:29.208Z,29.17
2017-12-16T07:53:59.836Z,28.95
2017-12-16T07:56:29.517Z,28.90
2017-12-16T07:58:56.177Z,28.60
2017-12-16T08:01:23.497Z,28.52
2017-12-16T08:09:41.383Z,26.70
2017-12-16T08:12:08.622Z,25.77
2017-12-16T08:14:35.358Z,25.20
2017-12-16T08:17:02.018Z,26.10
2017-12-16T08:19:28.783Z,22.75
2017-12-16T08:21:55.650Z,23.90
2017-12-16T08:24:22.257Z,26.67
2017-12-16T08:26:51.605Z,26.77
2017-12-16T08:29:24.993Z,40.60
2017-12-16T08:31:52.008Z,32.33
2017-12-16T08:34:19.489Z,34.67
2017-12-16T08:36:46.967Z,32.72
2017-12-16T08:39:14.038Z,30.65
2017-12-16T08:41:41.214Z,54.63
2017-12-16T08:44:08.893Z,48.30
2017-12-16T08:46:35.449Z,31.87
2017-12-16T08:49:02.224Z,30.90
2017-12-16T08:51:28.876Z,26.83
2017-12-16T08:54:07.984Z,28.15
2017-12-16T08:56:37.063Z,25.85
2017-12-16T08:59:05.588Z,23.45
2017-12-16T09:01:32.700Z,19.77
2017-12-16T09:04:18.279Z,17.80
2017-12-16T09:06:45.043Z,23.40
2017-12-16T09:09:12.320Z,24.33
2017-12-16T09:11:59.026Z,38.50
2017-12-16T09:14:26.912Z,24.12
2017-12-16T09:16:54.291Z,25.92
2017-12-16T09:19:21.051Z,30.42
2017-12-16T09:21:54.364Z,25.08
2017-12-16T09:24:20.919Z,21.30
2017-12-16T09:26:48.499Z,53.42
2017-12-16T09:29:15.978Z,55.28
2017-12-16T09:31:43.559Z,20.70
2017-12-16T09:34:10.121Z,12.55
2017-12-16T09:36:36.782Z,13.75
2017-12-16T09:39:03.609Z,15.88
2017-12-16T09:41:31.226Z,37.88
2017-12-16T09:43:58.187Z,37.53
2017-12-16T09:46:31.463Z,15.75
2017-12-16T09:48:57.957Z,20.60
2017-12-16T09:51:24.516Z,21.15
2017-12-16T09:53:53.672Z,14.05
2017-12-16T09:56:20.292Z,13.50
2017-12-16T09:58:47.054Z,12.23
2017-12-16T10:01:13.540Z,18.33
2017-12-16T10:03:43.448Z,16.85
2017-12-16T10:06:10.003Z,14.75
2017-12-16T10:08:37.485Z,23.38
2017-12-16T10:11:04.968Z,14.07
2017-12-16T10:13:37.659Z,14.40
2017-12-16T10:16:04.318Z,17.27
2017-12-16T10:18:31.610Z,50.22
2017-12-16T10:20:58.158Z,24.17
2017-12-16T10:23:24.810Z,47.33
2017-12-16T10:25:52.010Z,29.02
2017-12-16T10:28:18.621Z,20.42
2017-12-16T10:30:49.017Z,18.12
2017-12-16T10:33:15.644Z,19.08
2017-12-16T10:35:43.025Z,22.83
2017-12-16T10:38:09.684Z,36.78
2017-12-16T10:40:37.060Z,36.70
2017-12-16T10:43:04.366Z,26.33
2017-12-16T10:45:30.998Z,26.35
2017-12-16T10:47:57.861Z,27.92
2017-12-16T10:50:25.242Z,30.45
2017-12-16T10:52:52.784Z,24.12
2017-12-16T10:55:19.379Z,20.90
2017-12-16T10:57:46.736Z,20.20
2017-12-16T11:00:15.054Z,21.30
2017-12-16T11:02:41.719Z,20.90
2017-12-16T11:05:10.421Z,22.92
2017-12-16T11:07:37.284Z,29.73
2017-12-16T11:10:03.908Z,18.10
2017-12-16T11:12:34.287Z,15.90
2017-12-16T11:15:00.850Z,44.13
2017-12-16T11:17:27.714Z,58.75
2017-12-16T11:20:00.202Z,42.60
2017-12-16T11:22:27.580Z,25.80
2017-12-16T11:24:56.287Z,22.37
2017-12-16T11:27:26.221Z,31.20
2017-12-16T11:29:54.003Z,26.25
2017-12-16T11:32:21.494Z,17.73
2017-12-16T11:34:52.137Z,22.10
2017-12-16T11:37:19.615Z,20.83
2017-12-16T11:39:46.274Z,17.92
2017-12-16T11:42:13.616Z,16.33
2017-12-16T11:44:41.231Z,18.60
2017-12-16T11:47:10.916Z,15.10
2017-12-16T11:49:38.235Z,13.75
2017-12-16T11:52:05.204Z,15.10
2017-12-16T11:54:46.591Z,15.55
2017-12-16T11:57:13.663Z,18.25
2017-12-16T11:59:40.633Z,14.48
2017-12-16T12:02:07.192Z,14.10
2017-12-16T12:04:38.660Z,13.50
2017-12-16T12:07:05.722Z,13.90
2017-12-16T12:09:32.487Z,13.95
2017-12-16T12:11:59.554Z,14.40
2017-12-16T12:14:26.181Z,14.60
2017-12-16T12:19:56.765Z,15.23
2017-12-16T12:22:24.942Z,14.00
2017-12-16T12:24:51.730Z,14.43
2017-12-16T12:27:18.999Z,14.60
2017-12-16T12:29:56.789Z,15.47
2017-12-16T12:32:23.364Z,16.05
2017-12-16T12:34:49.923Z,15.90
2017-12-16T12:37:16.589Z,15.40
2017-12-16T12:39:43.147Z,13.88
2017-12-16T12:42:09.804Z,13.88
2017-12-16T12:44:38.777Z,14.63
2017-12-16T12:47:05.785Z,13.62
2017-12-16T12:49:33.369Z,13.50
2017-12-16T12:52:01.565Z,13.18
2017-12-16T12:54:28.735Z,13.85
2017-12-16T12:57:06.713Z,13.38
2017-12-16T12:59:33.613Z,13.15
2017-12-16T13:02:02.975Z,14.25
2017-12-16T13:04:31.775Z,14.65
2017-12-16T13:07:05.560Z,13.27
2017-12-16T13:09:34.659Z,13.43
2017-12-16T13:12:01.341Z,14.23
2017-12-16T13:14:28.509Z,13.33
2017-12-16T13:16:55.375Z,13.62
2017-12-16T13:19:22.137Z,13.65
2017-12-16T13:21:50.849Z,13.20
2017-12-16T13:24:25.775Z,14.02
2017-12-16T13:26:55.396Z,14.05
2017-12-16T13:29:25.849Z,13.85
2017-12-16T13:31:57.179Z,14.70
2017-12-16T13:34:39.334Z,15.07
2017-12-16T13:37:13.712Z,21.02
2017-12-16T13:39:45.087Z,14.65
2017-12-16T13:42:25.093Z,18.47
2017-12-16T13:44:53.588Z,15.00
2017-12-16T13:47:22.826Z,13.70
2017-12-16T13:49:53.392Z,14.03
2017-12-16T13:52:22.758Z,14.43
2017-12-16T13:54:51.684Z,13.55
2017-12-16T13:57:18.347Z,13.93
2017-12-16T13:59:46.341Z,14.80
2017-12-16T14:02:14.335Z,14.45
2017-12-16T14:04:56.534Z,15.10
2017-12-16T14:07:26.986Z,14.98
2017-12-16T14:09:55.411Z,15.70
2017-12-16T14:12:47.404Z,14.00
2017-12-16T14:15:15.536Z,35.10
2017-12-16T14:17:46.896Z,20.62
2017-12-16T14:20:21.800Z,15.80
2017-12-16T14:22:50.925Z,14.95
2017-12-16T14:25:19.179Z,14.00
2017-12-16T14:27:46.193Z,14.82
2017-12-16T14:30:17.447Z,14.50
2017-12-16T14:32:46.616Z,14.40
2017-12-16T14:35:22.312Z,14.93
2017-12-16T14:37:52.109Z,15.00
2017-12-16T14:40:31.628Z,16.75
2017-12-16T14:43:02.381Z,15.00
2017-12-16T14:45:32.008Z,15.27
2017-12-16T14:48:02.161Z,15.30
2017-12-16T14:50:30.212Z,16.20
2017-12-16T14:52:56.876Z,17.10
2017-12-16T14:55:25.808Z,15.73
2017-12-16T14:57:55.719Z,16.30
2017-12-16T15:00:24.219Z,18.90
2017-12-16T15:02:53.028Z,15.60
2017-12-16T15:05:22.980Z,15.07
2017-12-16T15:07:49.829Z,14.87
2017-12-16T15:10:18.191Z,18.42
2017-12-16T15:12:47.752Z,17.77
2017-12-16T15:15:19.342Z,20.00
2017-12-16T15:17:47.822Z,20.97
2017-12-16T15:20:18.963Z,20.58
2017-12-16T15:22:46.524Z,22.40
2017-12-16T15:25:13.680Z,16.15
2017-12-16T15:27:40.821Z,20.25
2017-12-16T15:30:08.288Z,29.95
2017-12-16T15:32:36.653Z,19.58
2017-12-16T15:35:11.485Z,20.30
2017-12-16T15:37:40.446Z,32.88
2017-12-16T15:40:08.446Z,18.27
2017-12-16T15:42:35.888Z,28.08
2017-12-16T15:45:05.103Z,17.70
2017-12-16T15:47:32.146Z,14.02
2017-12-16T15:49:59.295Z,17.05
2017-12-16T15:52:26.134Z,17.40
2017-12-16T16:00:39.684Z,15.57
2017-12-16T16:03:13.344Z,14.68
2017-12-16T16:05:40.446Z,70.90
2017-12-16T16:08:10.164Z,28.50
2017-12-16T16:10:39.972Z,16.10
2017-12-16T16:13:17.262Z,15.90
2017-12-16T16:15:46.254Z,13.68
2017-12-16T16:18:15.859Z,40.85
2017-12-16T16:23:40.057Z,13.27
2017-12-16T16:26:07.107Z,14.93
2017-12-16T16:28:34.366Z,14.38
2017-12-16T16:31:04.579Z,12.98
2017-12-16T16:33:45.023Z,12.80
2017-12-16T16:36:12.452Z,11.10
2017-12-16T16:38:39.193Z,12.25
2017-12-16T16:41:06.147Z,12.80
2017-12-16T16:46:27.204Z,12.40
2017-12-16T16:48:53.903Z,12.20
2017-12-16T16:51:20.784Z,12.88
2017-12-16T16:53:47.384Z,11.60
2017-12-16T16:59:14.591Z,11.30
2017-12-16T17:01:41.435Z,12.37
2017-12-16T17:04:08.195Z,12.10
2017-12-16T17:06:35.119Z,12.80
2017-12-16T17:09:08.297Z,13.00
2017-12-16T17:11:35.252Z,14.65
2017-12-16T17:14:02.300Z,11.73
2017-12-16T17:16:29.338Z,13.70
2017-12-16T17:19:19.930Z,12.90
2017-12-16T17:21:46.857Z,13.10
2017-12-16T17:24:13.699Z,19.58
2017-12-16T17:26:41.698Z,20.08
2017-12-16T17:32:08.561Z,18.37
2017-12-16T17:34:35.588Z,14.48
2017-12-16T17:37:02.448Z,13.60
2017-12-16T17:39:30.213Z,13.15
2017-12-16T17:42:21.607Z,13.40
2017-12-16T17:44:48.549Z,12.90
2017-12-16T17:47:15.417Z,12.00
2017-12-16T17:49:45.133Z,12.93
2017-12-16T17:52:12.509Z,12.80
2017-12-16T17:54:39.067Z,13.35
2017-12-16T17:57:06.445Z,12.30
2017-12-16T17:59:33.005Z,12.55
2017-12-16T18:01:59.562Z,13.10
2017-12-16T18:04:26.873Z,13.37
2017-12-16T18:06:53.497Z,12.95
2017-12-16T18:09:20.975Z,12.98
2017-12-16T18:11:48.355Z,13.35
2017-12-16T18:14:16.036Z,11.55
2017-12-16T18:16:42.616Z,10.82
2017-12-16T18:19:09.666Z,11.52
2017-12-16T18:21:36.326Z,10.88
2017-12-16T18:24:03.703Z,11.70
2017-12-16T18:26:30.981Z,11.85
2017-12-16T18:28:57.637Z,13.85
2017-12-16T18:31:24.912Z,13.15
2017-12-16T18:33:52.186Z,13.25
2017-12-16T18:36:19.564Z,12.77
2017-12-16T18:38:46.941Z,12.60
2017-12-16T18:41:14.028Z,14.70
2017-12-16T18:43:41.080Z,14.15
2017-12-16T18:46:08.523Z,13.80
2017-12-16T18:48:35.098Z,14.10
2017-12-16T18:51:09.504Z,20.20
2017-12-16T18:53:37.482Z,17.37
2017-12-16T18:56:10.249Z,13.50
2017-12-16T18:58:37.517Z,16.90
2017-12-16T19:01:04.381Z,12.00
2017-12-16T19:03:31.241Z,17.43
2017-12-16T19:05:59.110Z,16.00
2017-12-16T19:08:26.511Z,13.10
2017-12-16T19:10:53.807Z,17.73
2017-12-16T19:13:20.451Z,16.87
2017-12-16T19:15:47.086Z,18.27
2017-12-16T19:18:14.480Z,15.30
2017-12-16T19:20:41.854Z,14.38
2017-12-16T19:23:09.232Z,12.55
2017-12-16T19:25:35.894Z,11.70
2017-12-16T19:28:03.883Z,11.57
2017-12-16T19:30:30.546Z,12.60
2017-12-16T19:32:57.109Z,13.07
2017-12-16T19:35:24.320Z,14.10
2017-12-16T19:37:51.734Z,11.77
2017-12-16T19:40:18.520Z,11.20
2017-12-16T19:42:46.200Z,11.43
2017-12-16T19:45:13.374Z,10.85
2017-12-16T19:47:40.338Z,12.00
2017-12-16T19:50:08.695Z,11.35
2017-12-16T19:52:36.118Z,11.40
2017-12-16T19:55:03.287Z,10.68
2017-12-16T19:57:30.869Z,10.90
2017-12-16T20:00:00.087Z,10.40
2017-12-16T20:02:27.262Z,10.40
2017-12-16T20:04:53.929Z,11.10
2017-12-16T20:07:20.624Z,10.60
2017-12-16T20:09:47.241Z,9.85
2017-12-16T20:12:14.311Z,10.48
2017-12-16T20:14:40.869Z,9.60
2017-12-16T20:17:08.044Z,10.00
2017-12-16T20:19:34.805Z,9.80
2017-12-16T20:22:01.367Z,10.40
2017-12-16T20:24:28.126Z,10.00
2017-12-16T20:26:55.374Z,9.60
2017-12-16T20:29:21.878Z,9.45
2017-12-16T20:31:48.512Z,9.70
2017-12-16T20:34:15.105Z,9.90
2017-12-16T20:36:42.149Z,9.32
2017-12-16T20:39:09.014Z,9.52
2017-12-16T20:41:36.576Z,9.40
2017-12-16T20:44:03.870Z,9.45
2017-12-16T20:46:31.550Z,9.25
2017-12-16T20:48:58.518Z,9.48
2017-12-16T20:51:26.076Z,9.82
2017-12-16T20:53:53.682Z,9.13
2017-12-16T20:56:20.396Z,9.65
2017-12-16T20:58:47.848Z,9.60
2017-12-16T21:01:15.605Z,9.25
2017-12-16T21:03:44.288Z,9.60
2017-12-16T21:06:11.748Z,9.52
2017-12-16T21:08:39.986Z,9.23
2017-12-16T21:11:06.851Z,9.07
2017-12-16T21:13:33.408Z,9.38
2017-12-16T21:16:08.068Z,9.10
2017-12-16T21:18:35.016Z,9.30
2017-12-16T21:21:01.573Z,9.63
2017-12-16T21:23:30.179Z,9.63
2017-12-16T21:25:57.045Z,9.82
2017-12-16T21:28:23.739Z,9.95
2017-12-16T21:30:56.380Z,9.80
2017-12-16T21:33:23.674Z,10.40
2017-12-16T21:35:50.334Z,9.50
2017-12-16T21:38:16.995Z,10.07
2017-12-16T21:40:43.863Z,9.30
2017-12-16T21:43:19.115Z,9.13
2017-12-16T21:45:46.282Z,9.70
2017-12-16T21:48:13.641Z,9.00
2017-12-16T21:50:49.225Z,9.57
2017-12-16T21:53:16.022Z,9.50
2017-12-16T21:55:42.546Z,9.50
2017-12-16T21:58:09.751Z,9.90
2017-12-16T22:00:41.236Z,9.43
2017-12-16T22:03:08.557Z,9.85
2017-12-16T22:05:35.273Z,9.50
2017-12-16T22:08:02.901Z,9.45
2017-12-16T22:10:43.784Z,10.50
2017-12-16T22:13:10.507Z,9.20
2017-12-16T22:15:37.922Z,9.60
2017-12-16T22:18:04.432Z,9.73
2017-12-16T22:20:37.479Z,9.13
2017-12-16T22:23:04.038Z,9.27
2017-12-16T22:25:30.840Z,9.27
2017-12-16T22:27:57.449Z,9.98
2017-12-16T22:33:29.339Z,9.80
2017-12-16T22:35:56.264Z,9.32
2017-12-16T22:38:22.816Z,9.70
2017-12-16T22:40:49.704Z,9.32
2017-12-16T22:43:24.941Z,9.07
2017-12-16T22:45:52.409Z,8.98
2017-12-16T22:48:19.122Z,9.07
2017-12-16T22:50:45.783Z,9.57
2017-12-16T22:56:08.372Z,8.80
2017-12-16T22:58:35.118Z,8.52
2017-12-16T23:01:02.698Z,9.40
2017-12-16T23:03:29.268Z,9.37
2017-12-16T23:05:56.022Z,8.98
2017-12-16T23:08:22.783Z,9.50
2017-12-16T23:10:50.631Z,9.63
2017-12-16T23:16:31.962Z,9.60
2017-12-16T23:18:58.619Z,10.50
2017-12-16T23:21:26.102Z,9.97
2017-12-16T23:23:52.759Z,10.25
2017-12-16T23:26:19.624Z,9.75
2017-12-16T23:28:47.004Z,9.20
2017-12-16T23:31:15.022Z,9.40
2017-12-16T23:33:46.360Z,9.43
2017-12-16T23:36:13.324Z,9.27
2017-12-16T23:38:39.987Z,9.40
2017-12-16T23:44:13.910Z,9.90
2017-12-16T23:46:40.672Z,9.68
2017-12-16T23:49:07.620Z,9.40
2017-12-16T23:51:34.152Z,9.10
2017-12-16T23:54:02.702Z,9.30
2017-12-16T23:56:29.245Z,9.00
2017-12-16T23:58:56.562Z,9.43
